Time;durP1;ratioP1;P1;durP2;ratioP2;P2;SDS_P1;SDS_P2;PMS_P1;PMS_P2;Temp;Humidity;BMP_temperature;BMP_pressure;BME280_temperature;BME280_humidity;BME280_pressure;Samples;Min_cycle;Max_cycle;Signal;HPM_P1;HPM_P2
2022/12/01 00:00:18;;;;;;;78.05;34.97;;;6.00;99.90;;;;;;5055831;28;20028;-74
2022/12/01 00:02:44;;;;;;;69.57;34.40;;;6.00;99.90;;;;;;5054828;28;20722;-74
2022/12/01 00:05:09;;;;;;;65.93;31.95;;;6.00;99.90;;;;;;5065143;28;20040;-73
2022/12/01 00:07:35;;;;;;;71.43;32.08;;;6.00;99.90;;;;;;5041158;28;20029;-74
2022/12/01 00:12:44;;;;;;;70.88;31.38;;;6.00;99.90;;;;;;5048886;28;20083;-74
2022/12/01 00:15:11;;;;;;;66.30;30.48;;;6.00;99.90;;;;;;5054483;28;20048;-74
2022/12/01 00:17:37;;;;;;;68.85;31.30;;;6.00;99.90;;;;;;5035030;28;20113;-74
2022/12/01 00:20:05;;;;;;;66.50;30.70;;;6.00;99.90;;;;;;5041940;28;20029;-74
2022/12/01 00:22:30;;;;;;;65.43;29.55;;;6.00;99.90;;;;;;5038244;28;20037;-73
2022/12/01 00:24:56;;;;;;;62.28;28.98;;;6.00;99.90;;;;;;5040588;28;20029;-73
2022/12/01 00:27:21;;;;;;;69.05;30.92;;;6.00;99.90;;;;;;5048213;28;20044;-73
2022/12/01 00:29:47;;;;;;;53.00;27.02;;;6.00;99.90;;;;;;5046535;28;20091;-74
2022/12/01 00:32:13;;;;;;;59.70;25.52;;;6.00;99.90;;;;;;5043053;28;20736;-73
2022/12/01 00:34:39;;;;;;;56.97;26.58;;;6.00;99.90;;;;;;5037341;28;20037;-74
2022/12/01 00:37:04;;;;;;;60.90;28.13;;;6.00;99.90;;;;;;5048067;28;20043;-74
2022/12/01 00:39:30;;;;;;;58.90;27.77;;;6.00;99.90;;;;;;5037327;28;20048;-73
2022/12/01 00:41:56;;;;;;;67.72;28.10;;;6.00;99.90;;;;;;5038767;28;20051;-73
2022/12/01 00:44:22;;;;;;;55.83;25.80;;;6.10;99.90;;;;;;5034367;28;20025;-74
2022/12/01 00:46:48;;;;;;;54.17;25.55;;;6.10;99.90;;;;;;5040604;28;20550;-73
2022/12/01 00:49:14;;;;;;;55.53;26.55;;;6.10;99.90;;;;;;5036650;28;20128;-73
2022/12/01 00:51:39;;;;;;;54.97;24.35;;;6.20;99.90;;;;;;5033290;28;20597;-73
2022/12/01 00:54:05;;;;;;;59.33;25.63;;;6.20;99.90;;;;;;5042409;28;20029;-73
2022/12/01 00:56:30;;;;;;;57.83;24.63;;;6.20;99.90;;;;;;5043332;28;20032;-73
2022/12/01 00:58:56;;;;;;;58.80;25.27;;;6.20;99.90;;;;;;5033638;28;20109;-74
2022/12/01 01:01:22;;;;;;;51.58;23.83;;;6.20;99.90;;;;;;5041300;28;20084;-74
2022/12/01 01:03:47;;;;;;;51.45;23.90;;;6.20;99.90;;;;;;5064978;28;20024;-74
2022/12/01 01:06:14;;;;;;;60.33;25.38;;;6.20;99.90;;;;;;5052691;28;20040;-74
2022/12/01 01:08:40;;;;;;;59.63;25.45;;;6.20;99.90;;;;;;5051284;28;20021;-74
2022/12/01 01:11:06;;;;;;;62.30;25.15;;;6.20;99.90;;;;;;5044926;28;20047;-73
2022/12/01 01:13:33;;;;;;;58.10;25.45;;;6.20;99.90;;;;;;5042284;28;20036;-74
2022/12/01 01:16:09;;;;;;;57.72;25.55;;;6.20;99.90;;;;;;5040805;28;20082;-74
2022/12/01 01:18:35;;;;;;;55.78;24.67;;;6.20;99.90;;;;;;5039917;28;20029;-73
2022/12/01 01:21:03;;;;;;;60.53;25.90;;;6.20;99.90;;;;;;5054357;28;20041;-74
2022/12/01 01:23:29;;;;;;;58.25;25.27;;;6.20;99.90;;;;;;5045227;28;20032;-74
2022/12/01 01:26:11;;;;;;;58.20;24.75;;;6.30;99.90;;;;;;5042283;28;20029;-74
2022/12/01 01:28:40;;;;;;;47.50;23.80;;;6.30;99.90;;;;;;5042407;28;20037;-74
2022/12/01 01:31:07;;;;;;;59.15;25.08;;;6.30;99.90;;;;;;5033711;28;20021;-74
2022/12/01 01:33:33;;;;;;;62.05;25.42;;;6.30;99.90;;;;;;5042311;28;20034;-74
2022/12/01 01:35:59;;;;;;;53.90;23.65;;;6.30;99.90;;;;;;5037026;28;20086;-74
2022/12/01 01:38:26;;;;;;;64.43;26.80;;;6.30;99.90;;;;;;5045215;28;20029;-73
2022/12/01 01:40:52;;;;;;;63.25;26.45;;;6.30;99.90;;;;;;5038019;28;20029;-74
2022/12/01 01:43:42;;;;;;;61.70;26.27;;;6.40;99.90;;;;;;5031221;28;20076;-74
2022/12/01 01:46:19;;;;;;;56.58;25.35;;;6.40;99.90;;;;;;5040119;28;20131;-74
2022/12/01 01:48:52;;;;;;;64.60;26.42;;;6.40;99.90;;;;;;5033782;28;20099;-74
2022/12/01 01:51:24;;;;;;;65.40;26.88;;;6.40;99.90;;;;;;5026416;28;20037;-74
2022/12/01 01:53:53;;;;;;;75.07;27.70;;;6.40;99.90;;;;;;5034188;28;20108;-74
2022/12/01 01:56:20;;;;;;;71.45;28.17;;;6.40;99.90;;;;;;5037911;28;20120;-75
2022/12/01 01:58:46;;;;;;;65.45;26.05;;;6.40;99.90;;;;;;5048891;28;20028;-73
2022/12/01 02:01:11;;;;;;;66.53;28.25;;;6.40;99.90;;;;;;5040606;28;20037;-73
2022/12/01 02:03:39;;;;;;;65.55;26.85;;;6.40;99.90;;;;;;5041135;28;20040;-73
2022/12/01 02:06:08;;;;;;;64.32;27.27;;;6.40;99.90;;;;;;5039368;28;20028;-73
2022/12/01 02:08:35;;;;;;;63.30;26.27;;;6.40;99.90;;;;;;5054036;28;20056;-73
2022/12/01 02:11:19;;;;;;;66.80;27.55;;;6.40;99.90;;;;;;5041907;28;20029;-74
2022/12/01 02:14:03;;;;;;;61.35;25.65;;;6.40;99.90;;;;;;5040567;28;20045;-73
2022/12/01 02:16:53;;;;;;;59.22;26.33;;;6.40;99.90;;;;;;5036058;28;20029;-74
2022/12/01 02:19:46;;;;;;;62.55;26.23;;;6.40;99.90;;;;;;5041332;28;20013;-73
2022/12/01 02:22:18;;;;;;;57.72;25.10;;;6.40;99.90;;;;;;5036385;28;20033;-73
2022/12/01 02:25:10;;;;;;;65.88;26.58;;;6.40;99.90;;;;;;5038517;28;20033;-73
2022/12/01 02:28:03;;;;;;;59.15;25.33;;;6.30;99.90;;;;;;5038898;28;20052;-74
2022/12/01 02:30:53;;;;;;;59.58;26.48;;;6.30;99.90;;;;;;5036755;28;20029;-73
2022/12/01 02:33:41;;;;;;;65.13;25.85;;;6.30;99.90;;;;;;5034051;28;20061;-74
2022/12/01 02:36:26;;;;;;;70.85;27.08;;;6.40;99.90;;;;;;5028314;28;20072;-74
2022/12/01 02:38:58;;;;;;;70.18;26.67;;;6.40;99.90;;;;;;5041539;28;20029;-74
2022/12/01 02:41:29;;;;;;;74.07;28.15;;;6.40;99.90;;;;;;5051380;28;20526;-74
2022/12/01 02:44:20;;;;;;;67.55;26.63;;;6.40;99.90;;;;;;5036434;28;20106;-74
2022/12/01 02:46:52;;;;;;;59.45;25.20;;;6.40;99.90;;;;;;5042188;28;20032;-75
2022/12/01 02:49:24;;;;;;;63.00;26.00;;;6.40;99.90;;;;;;5041303;28;20040;-73
2022/12/01 02:51:51;;;;;;;69.63;26.63;;;6.40;99.90;;;;;;5039598;28;20048;-73
2022/12/01 02:54:18;;;;;;;71.30;26.85;;;6.40;99.90;;;;;;5039685;28;20068;-74
2022/12/01 02:56:44;;;;;;;69.22;27.35;;;6.40;99.90;;;;;;5046396;28;20024;-74
2022/12/01 02:59:12;;;;;;;72.70;27.00;;;6.50;99.90;;;;;;5044441;28;20774;-72
2022/12/01 03:02:02;;;;;;;66.90;27.05;;;6.50;99.90;;;;;;5037650;28;20053;-74
2022/12/01 03:04:46;;;;;;;77.20;27.33;;;6.40;99.90;;;;;;5045312;28;20029;-74
2022/12/01 03:07:11;;;;;;;74.20;27.60;;;6.50;99.90;;;;;;5041573;28;20048;-74
2022/12/01 03:09:47;;;;;;;76.70;29.83;;;6.50;99.90;;;;;;5044311;28;20029;-74
2022/12/01 03:12:25;;;;;;;65.10;26.40;;;6.50;99.90;;;;;;5034430;28;20037;-73
2022/12/01 03:15:20;;;;;;;67.28;26.85;;;6.50;99.90;;;;;;5037965;28;20086;-74
2022/12/01 03:17:48;;;;;;;71.63;26.38;;;6.60;99.90;;;;;;5036934;28;20052;-74
2022/12/01 03:20:14;;;;;;;62.80;25.13;;;6.50;99.90;;;;;;5044537;28;20063;-75
2022/12/01 03:22:50;;;;;;;71.85;28.33;;;6.50;99.90;;;;;;5032504;28;20032;-74
2022/12/01 03:25:17;;;;;;;69.35;27.27;;;6.50;99.90;;;;;;5052086;28;20035;-73
2022/12/01 03:27:45;;;;;;;68.38;27.40;;;6.40;99.90;;;;;;5035860;28;20087;-74
2022/12/01 03:30:12;;;;;;;50.83;23.30;;;6.50;99.90;;;;;;5063631;28;20041;-74
2022/12/01 03:32:48;;;;;;;62.65;26.02;;;6.50;99.90;;;;;;5049814;28;20044;-73
2022/12/01 03:35:30;;;;;;;60.20;25.50;;;6.50;99.90;;;;;;5040626;28;20090;-74
2022/12/01 03:38:01;;;;;;;55.45;24.55;;;6.50;99.90;;;;;;5057856;28;20024;-73
2022/12/01 03:40:29;;;;;;;64.10;25.52;;;6.50;99.90;;;;;;5060149;28;20037;-74
2022/12/01 03:42:55;;;;;;;54.38;23.45;;;6.50;99.90;;;;;;5054415;28;20111;-75
2022/12/01 03:45:33;;;;;;;55.63;24.20;;;6.50;99.90;;;;;;5047431;28;20052;-75
2022/12/01 03:47:59;;;;;;;59.67;25.35;;;6.50;99.90;;;;;;5052871;28;20033;-74
2022/12/01 03:50:35;;;;;;;53.67;23.90;;;6.50;99.90;;;;;;5030913;28;20118;-74
2022/12/01 03:53:18;;;;;;;56.22;23.38;;;6.50;99.90;;;;;;5043726;28;20041;-74
2022/12/01 03:55:49;;;;;;;55.72;24.30;;;6.60;99.90;;;;;;5046687;28;20040;-74
2022/12/01 03:58:25;;;;;;;62.58;24.52;;;6.60;99.90;;;;;;5045402;28;20080;-73
2022/12/01 04:00:54;;;;;;;60.05;25.02;;;6.60;99.90;;;;;;5036616;28;20039;-74
2022/12/01 04:03:23;;;;;;;52.17;23.15;;;6.60;99.90;;;;;;5044835;28;20462;-74
2022/12/01 04:05:49;;;;;;;60.72;24.75;;;6.60;99.90;;;;;;5050004;28;20070;-73
2022/12/01 04:08:14;;;;;;;58.63;24.40;;;6.60;99.90;;;;;;5043340;28;20391;-73
2022/12/01 04:10:40;;;;;;;60.00;25.85;;;6.60;99.90;;;;;;5042438;28;20346;-73
2022/12/01 04:13:10;;;;;;;58.60;25.02;;;6.60;99.90;;;;;;5041225;28;20702;-73
2022/12/01 04:15:36;;;;;;;61.20;23.55;;;6.70;99.90;;;;;;5058001;28;20030;-74
2022/12/01 04:18:02;;;;;;;56.05;23.77;;;6.70;99.90;;;;;;5043750;28;20036;-74
2022/12/01 04:20:27;;;;;;;58.40;24.58;;;6.70;99.90;;;;;;5042427;28;20029;-74
2022/12/01 04:22:53;;;;;;;59.40;25.77;;;6.70;99.90;;;;;;5030567;28;20028;-74
2022/12/01 04:25:19;;;;;;;58.63;24.63;;;6.70;99.90;;;;;;5039043;28;20120;-73
2022/12/01 04:27:44;;;;;;;55.72;23.20;;;6.70;99.90;;;;;;5041613;28;20028;-73
2022/12/01 04:30:11;;;;;;;66.15;25.88;;;6.80;99.90;;;;;;5034096;28;20598;-74
2022/12/01 04:32:41;;;;;;;52.70;23.48;;;6.70;99.90;;;;;;5046344;28;20101;-73
2022/12/01 04:35:08;;;;;;;63.75;24.35;;;6.80;99.90;;;;;;5041023;28;20127;-74
2022/12/01 04:37:34;;;;;;;58.90;25.15;;;6.80;99.90;;;;;;5027625;28;20045;-74
2022/12/01 04:39:59;;;;;;;59.55;24.27;;;6.80;99.90;;;;;;5030346;28;20028;-73
2022/12/01 04:42:25;;;;;;;68.07;24.38;;;6.80;99.90;;;;;;5032186;28;20038;-74
2022/12/01 04:44:50;;;;;;;49.58;21.70;;;6.80;99.90;;;;;;5033112;28;20037;-74
2022/12/01 04:47:16;;;;;;;59.22;23.77;;;6.80;99.90;;;;;;5038660;28;20387;-74
2022/12/01 04:49:41;;;;;;;48.88;23.13;;;6.80;99.90;;;;;;5039886;28;20025;-74
2022/12/01 04:52:07;;;;;;;55.22;22.95;;;6.80;99.90;;;;;;5034034;28;20060;-74
2022/12/01 04:54:33;;;;;;;48.78;22.73;;;6.80;99.90;;;;;;5039829;28;20033;-75
2022/12/01 04:56:58;;;;;;;52.10;23.25;;;6.80;99.90;;;;;;5032076;28;20567;-73
2022/12/01 04:59:24;;;;;;;55.28;23.83;;;6.80;99.90;;;;;;5037807;28;20112;-74
2022/12/01 05:01:49;;;;;;;53.63;23.70;;;6.80;99.90;;;;;;5034852;28;20040;-74
2022/12/01 05:04:15;;;;;;;51.65;22.45;;;6.90;99.90;;;;;;5031933;28;20033;-73
2022/12/01 05:06:40;;;;;;;44.70;20.00;;;6.90;99.90;;;;;;5039228;28;20037;-74
2022/12/01 05:09:06;;;;;;;55.10;22.55;;;6.90;99.90;;;;;;5071347;28;20033;-73
2022/12/01 05:11:32;;;;;;;55.22;23.00;;;6.90;99.90;;;;;;5038145;28;20406;-73
2022/12/01 05:13:58;;;;;;;51.28;22.02;;;6.90;99.90;;;;;;5041861;28;20084;-75
2022/12/01 05:16:31;;;;;;;50.33;22.92;;;6.90;99.90;;;;;;5054448;28;20647;-73
2022/12/01 05:21:45;;;;;;;48.33;21.95;;;6.90;99.90;;;;;;5059900;28;20092;-74
2022/12/01 05:24:11;;;;;;;54.72;23.90;;;6.90;99.90;;;;;;5065548;28;20041;-73
2022/12/01 05:26:37;;;;;;;41.38;19.40;;;6.90;99.90;;;;;;5057459;28;20024;-73
2022/12/01 05:29:03;;;;;;;53.60;22.42;;;6.90;99.90;;;;;;5063279;28;20119;-74
2022/12/01 05:31:29;;;;;;;48.85;22.65;;;6.90;99.90;;;;;;5056867;28;20044;-74
2022/12/01 05:33:55;;;;;;;51.17;23.38;;;6.90;99.90;;;;;;5065532;28;20032;-74
2022/12/01 05:36:21;;;;;;;48.42;23.45;;;6.90;99.90;;;;;;5065890;28;20427;-74
2022/12/01 05:38:46;;;;;;;50.00;21.80;;;6.90;99.90;;;;;;5065300;28;20036;-73
2022/12/01 05:41:13;;;;;;;47.38;22.13;;;6.90;99.90;;;;;;5065130;28;20032;-74
2022/12/01 05:43:39;;;;;;;47.47;21.90;;;6.90;99.90;;;;;;5055660;28;20112;-74
2022/12/01 05:46:05;;;;;;;44.25;20.65;;;6.90;99.90;;;;;;5035586;28;20116;-73
2022/12/01 05:48:30;;;;;;;48.75;21.63;;;6.90;99.90;;;;;;5046649;28;20075;-73
2022/12/01 05:50:56;;;;;;;41.13;18.55;;;6.90;99.90;;;;;;5042946;28;20039;-74
2022/12/01 05:53:22;;;;;;;39.47;19.83;;;6.90;99.90;;;;;;5027785;28;20033;-73
2022/12/01 05:55:52;;;;;;;42.67;20.25;;;6.90;99.90;;;;;;5035135;28;20090;-73
2022/12/01 05:58:18;;;;;;;37.63;19.23;;;6.90;99.90;;;;;;5030009;28;20177;-74
2022/12/01 06:00:43;;;;;;;44.05;19.95;;;6.90;99.90;;;;;;5047378;28;20721;-74
2022/12/01 06:03:09;;;;;;;42.15;19.88;;;6.90;99.90;;;;;;5037552;28;20756;-73
2022/12/01 06:05:34;;;;;;;39.78;19.45;;;6.90;99.90;;;;;;5047828;28;20074;-74
2022/12/01 06:08:00;;;;;;;40.63;19.60;;;6.90;99.90;;;;;;5032388;28;20025;-74
2022/12/01 06:10:25;;;;;;;38.90;17.55;;;6.90;99.90;;;;;;5029080;28;20029;-74
2022/12/01 06:12:51;;;;;;;37.08;20.05;;;6.80;99.90;;;;;;5043435;28;20076;-74
2022/12/01 06:15:17;;;;;;;34.17;18.13;;;6.80;99.90;;;;;;5036992;28;20036;-74
2022/12/01 06:17:43;;;;;;;38.35;17.55;;;6.90;99.90;;;;;;5029184;28;20025;-74
2022/12/01 06:20:10;;;;;;;32.63;17.02;;;6.80;99.90;;;;;;5037992;28;20038;-74
2022/12/01 06:22:35;;;;;;;29.80;15.68;;;6.80;99.90;;;;;;5033765;28;20037;-74
2022/12/01 06:25:01;;;;;;;33.55;15.85;;;6.80;99.90;;;;;;5045212;28;20075;-73
2022/12/01 06:27:27;;;;;;;34.60;17.30;;;6.80;99.90;;;;;;5025478;28;20037;-73
2022/12/01 06:29:53;;;;;;;33.92;17.08;;;6.80;99.90;;;;;;5024194;28;20026;-73
2022/12/01 06:32:18;;;;;;;27.05;14.77;;;6.80;99.90;;;;;;5032067;28;20067;-73
2022/12/01 06:34:44;;;;;;;31.42;15.70;;;6.80;99.90;;;;;;5046422;28;20407;-73
2022/12/01 06:37:10;;;;;;;32.13;16.38;;;6.80;99.90;;;;;;5038548;28;20041;-73
2022/12/01 06:39:36;;;;;;;32.05;16.10;;;6.80;99.90;;;;;;5033803;28;20109;-73
2022/12/01 06:42:01;;;;;;;31.25;16.33;;;6.80;99.90;;;;;;5046263;28;20120;-73
2022/12/01 06:44:27;;;;;;;29.08;14.55;;;6.80;99.90;;;;;;5038903;28;20438;-74
2022/12/01 06:46:53;;;;;;;31.35;15.45;;;6.70;99.90;;;;;;5039433;28;20037;-73
2022/12/01 06:49:19;;;;;;;28.73;15.32;;;6.70;99.90;;;;;;5043133;28;20032;-73
2022/12/01 06:51:45;;;;;;;30.17;16.08;;;6.70;99.90;;;;;;5036937;28;20056;-73
2022/12/01 06:54:14;;;;;;;32.65;15.63;;;6.60;99.90;;;;;;5053348;28;20787;-73
2022/12/01 06:56:41;;;;;;;29.45;16.80;;;6.70;99.90;;;;;;5032804;28;20033;-74
2022/12/01 06:59:07;;;;;;;31.90;16.40;;;6.60;99.90;;;;;;5045788;28;20029;-74
2022/12/01 07:01:33;;;;;;;31.95;16.15;;;6.60;99.90;;;;;;5036232;28;20033;-74
2022/12/01 07:03:58;;;;;;;33.67;17.00;;;6.60;99.90;;;;;;5041875;28;20028;-74
2022/12/01 07:06:24;;;;;;;29.00;15.35;;;6.60;99.90;;;;;;5047442;28;20037;-74
2022/12/01 07:08:51;;;;;;;30.30;15.68;;;6.60;99.90;;;;;;5035592;28;20725;-74
2022/12/01 07:11:16;;;;;;;28.63;14.98;;;6.60;99.90;;;;;;5044662;28;20044;-73
2022/12/01 07:13:48;;;;;;;29.00;15.90;;;6.60;99.90;;;;;;5050529;28;20029;-74
2022/12/01 07:16:13;;;;;;;31.63;16.05;;;6.60;99.90;;;;;;5047962;28;20104;-73
2022/12/01 07:18:39;;;;;;;28.05;15.90;;;6.60;99.90;;;;;;5052067;28;20107;-74
2022/12/01 07:21:11;;;;;;;28.58;15.00;;;6.60;99.90;;;;;;5038913;28;20108;-74
2022/12/01 07:23:36;;;;;;;31.42;15.70;;;6.60;99.90;;;;;;5043502;28;20108;-73
2022/12/01 07:26:04;;;;;;;32.35;15.70;;;6.60;99.90;;;;;;5037482;28;20025;-74
2022/12/01 07:28:30;;;;;;;29.48;15.85;;;6.60;99.90;;;;;;5030860;28;20029;-74
2022/12/01 07:31:10;;;;;;;29.48;15.45;;;6.60;99.90;;;;;;5032127;28;20605;-74
2022/12/01 07:33:36;;;;;;;;;;;6.60;99.90;;;;;;5034854;28;20040;-75
2022/12/01 07:36:03;;;;;;;29.98;14.50;;;6.60;99.90;;;;;;5042668;28;19916;-75
2022/12/01 07:38:33;;;;;;;27.88;14.90;;;6.60;99.90;;;;;;5032415;28;20112;-74
2022/12/01 07:41:21;;;;;;;;;;;6.60;99.90;;;;;;5043493;28;20037;-74
2022/12/01 07:43:47;;;;;;;27.02;14.88;;;6.60;99.90;;;;;;5035579;28;19917;-73
2022/12/01 07:46:15;;;;;;;25.77;13.93;;;6.60;99.90;;;;;;5037317;28;20033;-74
2022/12/01 07:48:41;;;;;;;27.15;14.70;;;6.60;99.90;;;;;;5034304;28;20044;-74
2022/12/01 07:51:08;;;;;;;23.50;13.98;;;6.60;99.90;;;;;;5039970;28;20112;-75
2022/12/01 07:53:34;;;;;;;26.73;13.93;;;6.60;99.90;;;;;;5032948;28;20029;-74
2022/12/01 07:56:00;;;;;;;27.25;13.15;;;6.50;99.90;;;;;;5038542;28;20041;-79
2022/12/01 07:58:26;;;;;;;27.60;14.80;;;6.50;99.90;;;;;;5034602;28;20043;-80
2022/12/01 08:00:52;;;;;;;24.92;13.18;;;6.50;99.90;;;;;;5040802;28;20036;-79
2022/12/01 08:03:19;;;;;;;25.63;13.82;;;6.60;99.90;;;;;;5031317;28;20033;-81
2022/12/01 08:05:44;;;;;;;25.25;13.02;;;6.50;99.90;;;;;;5040853;28;20082;-77
2022/12/01 08:08:10;;;;;;;26.58;13.65;;;6.50;99.90;;;;;;5053339;28;20044;-79
2022/12/01 08:10:36;;;;;;;22.00;12.90;;;6.60;99.90;;;;;;5053014;28;20055;-74
2022/12/01 08:13:02;;;;;;;21.85;12.40;;;6.60;99.90;;;;;;5034887;28;20064;-76
2022/12/01 08:15:27;;;;;;;24.70;13.20;;;6.60;99.90;;;;;;5035742;28;20146;-75
2022/12/01 08:17:53;;;;;;;22.40;13.02;;;6.60;99.90;;;;;;5041586;28;20241;-75
2022/12/01 08:20:20;;;;;;;23.70;12.40;;;6.60;99.90;;;;;;5041438;28;20036;-74
2022/12/01 08:22:46;;;;;;;23.33;11.45;;;6.60;99.90;;;;;;5038915;28;20043;-76
2022/12/01 08:25:11;;;;;;;23.05;12.63;;;6.60;99.90;;;;;;5048344;28;20644;-74
2022/12/01 08:27:37;;;;;;;23.10;13.10;;;6.70;99.90;;;;;;5044745;28;20037;-77
2022/12/01 08:30:03;;;;;;;24.25;13.15;;;6.70;99.90;;;;;;5023977;28;20037;-75
2022/12/01 08:32:29;;;;;;;22.95;12.38;;;6.70;99.90;;;;;;5034687;28;20037;-75
2022/12/01 08:34:54;;;;;;;21.30;12.00;;;6.70;99.90;;;;;;5052831;28;20098;-74
2022/12/01 08:37:20;;;;;;;23.98;12.32;;;6.80;99.90;;;;;;5046350;28;20021;-76
2022/12/01 08:39:46;;;;;;;18.05;9.50;;;6.80;99.90;;;;;;5052129;28;20031;-76
2022/12/01 08:42:12;;;;;;;17.65;10.57;;;6.80;99.90;;;;;;5051214;28;20032;-75
2022/12/01 08:44:37;;;;;;;17.73;9.70;;;6.80;99.90;;;;;;5053338;28;20684;-75
2022/12/01 08:47:03;;;;;;;17.70;9.27;;;6.80;99.90;;;;;;5056851;28;20107;-76
2022/12/01 08:49:28;;;;;;;16.05;9.43;;;6.70;99.90;;;;;;5061262;28;20033;-75
2022/12/01 08:51:55;;;;;;;17.52;8.60;;;6.70;99.90;;;;;;5064373;28;20032;-75
2022/12/01 08:54:21;;;;;;;16.33;8.57;;;6.70;99.90;;;;;;5042737;28;20025;-74
2022/12/01 08:56:46;;;;;;;13.20;7.80;;;6.70;99.90;;;;;;5049716;28;20028;-75
2022/12/01 08:59:13;;;;;;;19.05;11.00;;;6.90;99.90;;;;;;5041810;28;20040;-75
2022/12/01 09:01:50;;;;;;;17.65;10.10;;;7.10;99.90;;;;;;5044082;28;20029;-74
2022/12/01 09:04:20;;;;;;;19.83;11.32;;;7.40;99.90;;;;;;5046926;28;20558;-75
2022/12/01 09:06:47;;;;;;;17.52;10.98;;;7.60;99.90;;;;;;5046900;28;20471;-76
2022/12/01 09:09:19;;;;;;;21.38;11.48;;;7.80;99.90;;;;;;5062456;28;20071;-77
2022/12/01 09:11:46;;;;;;;20.90;11.88;;;7.80;99.90;;;;;;5045168;28;20075;-75
2022/12/01 09:14:13;;;;;;;21.60;11.38;;;7.80;99.90;;;;;;5036092;28;20121;-74
2022/12/01 09:16:40;;;;;;;17.42;11.10;;;7.70;99.90;;;;;;5044876;28;20021;-75
2022/12/01 09:19:05;;;;;;;18.52;10.77;;;7.70;99.90;;;;;;5030643;28;20044;-78
2022/12/01 09:21:33;;;;;;;18.20;11.80;;;7.70;99.90;;;;;;5030111;28;20037;-73
2022/12/01 09:23:59;;;;;;;19.90;11.10;;;7.60;99.90;;;;;;5032702;28;20044;-73
2022/12/01 09:26:26;;;;;;;16.98;10.05;;;7.60;99.90;;;;;;5031264;28;20029;-73
2022/12/01 09:28:53;;;;;;;20.90;10.35;;;7.60;99.90;;;;;;5036610;28;20119;-73
2022/12/01 09:31:22;;;;;;;15.38;10.45;;;7.60;99.90;;;;;;5028917;28;20039;-73
2022/12/01 09:33:52;;;;;;;16.50;10.25;;;7.60;99.90;;;;;;5038164;28;20041;-73
2022/12/01 09:36:18;;;;;;;21.02;10.75;;;7.70;99.90;;;;;;5027810;28;20476;-74
2022/12/01 09:38:43;;;;;;;15.95;10.55;;;7.70;99.90;;;;;;5036371;28;20104;-75
2022/12/01 09:41:21;;;;;;;18.80;11.45;;;7.80;99.90;;;;;;5040671;28;20038;-73
2022/12/01 09:43:55;;;;;;;15.43;9.60;;;7.90;99.90;;;;;;5025604;28;20029;-73
2022/12/01 09:46:27;;;;;;;18.23;9.73;;;8.00;99.90;;;;;;5046090;28;20029;-73
2022/12/01 09:48:56;;;;;;;17.80;10.63;;;8.20;99.90;;;;;;5046833;28;20467;-73
2022/12/01 09:51:24;;;;;;;20.75;11.43;;;8.30;99.90;;;;;;5042543;28;20034;-75
2022/12/01 09:53:53;;;;;;;18.42;10.70;;;8.40;99.90;;;;;;5042312;28;20583;-74
2022/12/01 09:56:41;;;;;;;16.90;10.10;;;8.30;99.90;;;;;;5025637;28;20037;-75
2022/12/01 09:59:16;;;;;;;14.27;9.60;;;8.30;99.90;;;;;;5025035;28;20112;-73
2022/12/01 10:01:45;;;;;;;17.58;10.35;;;8.20;99.90;;;;;;5027027;28;20049;-74
2022/12/01 10:04:21;;;;;;;17.40;9.38;;;8.20;99.90;;;;;;5027061;28;20124;-75
2022/12/01 10:07:00;;;;;;;18.20;9.57;;;8.20;99.90;;;;;;5025603;28;20029;-76
2022/12/01 10:09:37;;;;;;;15.18;10.30;;;8.20;99.90;;;;;;5029163;28;20029;-75
2022/12/01 10:12:26;;;;;;;15.38;9.65;;;8.30;99.90;;;;;;5045045;28;20049;-74
2022/12/01 10:15:19;;;;;;;15.70;10.43;;;8.40;99.90;;;;;;5043047;28;20437;-73
2022/12/01 10:17:59;;;;;;;15.70;9.50;;;8.60;99.90;;;;;;5042168;28;20265;-73
2022/12/01 10:20:27;;;;;;;;;;;8.90;99.90;;;;;;5038475;28;20383;-73
2022/12/01 10:23:08;;;;;;;15.85;8.45;;;9.10;99.90;;;;;;5027256;28;19917;-73
2022/12/01 10:25:56;;;;;;;14.30;8.52;;;9.00;99.90;;;;;;5043811;28;20043;-73
2022/12/01 10:28:41;;;;;;;14.98;9.05;;;9.00;99.90;;;;;;5045250;28;20634;-74
2022/12/01 10:31:19;;;;;;;14.82;8.73;;;9.10;99.90;;;;;;5045191;28;20029;-73
2022/12/01 10:34:25;;;;;;;16.42;9.25;;;9.20;99.90;;;;;;5045609;28;20087;-72
2022/12/01 10:36:51;;;;;;;15.85;8.50;;;9.30;99.90;;;;;;5028860;28;20047;-73
2022/12/01 10:39:24;;;;;;;12.70;7.85;;;9.40;99.90;;;;;;5024922;28;20392;-75
2022/12/01 10:41:50;;;;;;;13.70;7.55;;;9.40;99.90;;;;;;5027232;28;20036;-73
2022/12/01 10:44:17;;;;;;;12.63;7.57;;;9.40;99.90;;;;;;5037644;28;20028;-73
2022/12/01 10:46:52;;;;;;;15.38;8.18;;;9.40;99.90;;;;;;5033076;28;20036;-73
2022/12/01 10:49:19;;;;;;;13.68;8.10;;;9.40;99.90;;;;;;5048343;28;20079;-74
2022/12/01 10:51:57;;;;;;;15.93;8.27;;;9.40;99.90;;;;;;5047114;28;20112;-73
2022/12/01 10:54:34;;;;;;;15.70;8.18;;;9.50;99.90;;;;;;5049506;28;20024;-73
2022/12/01 10:57:01;;;;;;;9.23;5.10;;;9.70;99.90;;;;;;5036883;28;20060;-73
2022/12/01 10:59:53;;;;;;;7.85;4.13;;;9.80;99.90;;;;;;5029581;28;20021;-73
2022/12/01 11:02:21;;;;;;;7.22;2.92;;;9.90;99.90;;;;;;5043767;28;20446;-72
2022/12/01 11:04:52;;;;;;;7.15;2.75;;;10.10;99.90;;;;;;5052043;28;20029;-73
2022/12/01 11:07:24;;;;;;;10.10;3.33;;;10.30;99.90;;;;;;5045184;28;20040;-72
2022/12/01 11:10:27;;;;;;;6.35;2.63;;;10.50;99.90;;;;;;5046287;28;20100;-73
2022/12/01 11:12:53;;;;;;;5.82;2.47;;;11.90;99.90;;;;;;5020031;28;20085;-72
2022/12/01 11:15:36;;;;;;;5.22;2.22;;;12.80;99.90;;;;;;5032447;28;20075;-72
2022/12/01 11:18:06;;;;;;;7.50;3.38;;;13.40;99.90;;;;;;5041380;28;20284;-73
2022/12/01 11:20:32;;;;;;;;;;;14.30;99.90;;;;;;5029050;28;20144;-73
2022/12/01 11:23:28;;;;;;;4.75;2.42;;;14.20;99.90;;;;;;5027942;28;20048;-73
2022/12/01 11:26:02;;;;;;;5.72;2.30;;;13.50;99.90;;;;;;5029430;28;20554;-73
2022/12/01 11:28:29;;;;;;;7.78;3.10;;;12.90;99.90;;;;;;5029695;28;20072;-73
2022/12/01 11:31:02;;;;;;;6.55;2.60;;;12.50;99.90;;;;;;5029636;28;20033;-74
2022/12/01 11:33:29;;;;;;;9.65;2.58;;;12.20;99.90;;;;;;5028177;28;20034;-75
2022/12/01 11:35:55;;;;;;;7.38;2.72;;;11.80;99.90;;;;;;5033109;28;20464;-74
2022/12/01 11:38:28;;;;;;;5.90;3.05;;;11.70;99.90;;;;;;5035018;28;20052;-73
2022/12/01 11:40:55;;;;;;;6.50;3.13;;;11.50;99.90;;;;;;5038260;28;20113;-73
2022/12/01 11:43:33;;;;;;;7.65;3.63;;;11.40;99.90;;;;;;5037193;28;20475;-73
2022/12/01 11:46:03;;;;;;;9.95;3.70;;;11.30;99.90;;;;;;5033201;28;20476;-73
2022/12/01 11:48:30;;;;;;;7.38;3.65;;;11.40;99.90;;;;;;5039362;28;20511;-73
2022/12/01 11:51:19;;;;;;;7.32;4.03;;;11.40;99.90;;;;;;5035625;28;20056;-73
2022/12/01 11:53:45;;;;;;;8.05;3.22;;;11.40;99.90;;;;;;5027025;28;20060;-73
2022/12/01 11:56:19;;;;;;;7.70;3.33;;;11.30;99.90;;;;;;5029161;28;20033;-73
2022/12/01 11:58:47;;;;;;;9.73;3.63;;;11.20;99.90;;;;;;5045339;28;20395;-73
2022/12/01 12:01:19;;;;;;;7.70;3.28;;;11.30;99.90;;;;;;5034400;28;20044;-73
2022/12/01 12:04:16;;;;;;;9.40;3.83;;;11.40;99.90;;;;;;5043971;28;20480;-73
2022/12/01 12:07:02;;;;;;;8.98;3.97;;;11.40;99.90;;;;;;5036548;28;20025;-73
2022/12/01 12:10:00;;;;;;;8.32;3.80;;;11.20;99.90;;;;;;5044250;28;20033;-73
2022/12/01 12:13:03;;;;;;;10.15;3.95;;;11.00;99.90;;;;;;5031762;28;20036;-72
2022/12/01 12:15:40;;;;;;;8.63;3.65;;;10.90;99.90;;;;;;5031617;28;20029;-73
2022/12/01 12:18:34;;;;;;;8.75;3.42;;;10.90;99.90;;;;;;5029897;28;20087;-73
2022/12/01 12:21:11;;;;;;;9.60;3.85;;;10.70;99.90;;;;;;5032217;28;20037;-74
2022/12/01 12:24:17;;;;;;;7.60;3.40;;;10.60;99.90;;;;;;5033179;28;20034;-75
2022/12/01 12:27:12;;;;;;;6.43;3.50;;;10.60;99.90;;;;;;5043006;28;20082;-76
2022/12/01 12:29:37;;;;;;;6.55;3.30;;;10.60;99.90;;;;;;5034721;28;20029;-73
2022/12/01 12:32:27;;;;;;;7.45;3.13;;;10.70;99.90;;;;;;5040405;28;20033;-74
2022/12/01 12:35:20;;;;;;;6.78;3.17;;;10.70;99.90;;;;;;5026879;28;20037;-73
2022/12/01 12:38:12;;;;;;;8.48;3.15;;;10.80;99.90;;;;;;5038878;28;20028;-73
2022/12/01 12:41:00;;;;;;;8.20;2.90;;;10.90;99.90;;;;;;5029584;28;20048;-74
2022/12/01 12:43:44;;;;;;;6.15;2.63;;;11.10;99.90;;;;;;5035953;28;20040;-73
2022/12/01 12:46:14;;;;;;;7.50;3.10;;;11.10;99.90;;;;;;5027888;28;20033;-74
2022/12/01 12:48:43;;;;;;;9.95;3.53;;;11.10;99.90;;;;;;5035459;28;20293;-73
2022/12/01 12:51:17;;;;;;;9.02;3.42;;;11.10;99.90;;;;;;5036999;28;20033;-74
2022/12/01 12:53:58;;;;;;;6.70;3.13;;;11.20;99.90;;;;;;5031308;28;20040;-73
2022/12/01 12:56:25;;;;;;;9.98;3.45;;;11.20;99.90;;;;;;5035343;28;20028;-74
2022/12/01 12:59:07;;;;;;;7.57;3.35;;;11.30;99.90;;;;;;5048450;28;20028;-74
2022/12/01 13:01:38;;;;;;;9.73;3.88;;;11.50;99.90;;;;;;5044369;28;20762;-74
2022/12/01 13:04:29;;;;;;;6.80;3.60;;;11.70;99.90;;;;;;5042176;28;20040;-73